createdAt,value
2019-02-24T00:00:45.792Z,4.20
2019-02-24T00:03:18.981Z,4.20
2019-02-24T00:05:50.315Z,4.20
2019-02-24T00:08:21.878Z,4.20
2019-02-24T00:10:53.297Z,4.10
2019-02-24T00:13:24.956Z,4.10
2019-02-24T00:15:56.204Z,4.10
2019-02-24T00:18:27.894Z,4.10
2019-02-24T00:20:59.144Z,4.10
2019-02-24T00:23:30.373Z,4.10
2019-02-24T00:26:01.825Z,4.10
2019-02-24T00:28:32.938Z,4.10
2019-02-24T00:31:04.273Z,4.10
2019-02-24T00:33:35.512Z,4.00
2019-02-24T00:36:07.054Z,4.00
2019-02-24T00:38:38.303Z,4.00
2019-02-24T00:41:09.584Z,4.00
2019-02-24T00:43:40.760Z,4.00
2019-02-24T00:46:12.993Z,4.00
2019-02-24T00:48:44.261Z,4.00
2019-02-24T00:51:15.766Z,4.00
2019-02-24T00:53:47.113Z,4.00
2019-02-24T00:56:19.074Z,4.10
2019-02-24T00:58:50.805Z,4.10
2019-02-24T01:01:22.088Z,4.10
2019-02-24T01:03:53.479Z,4.10
2019-02-24T01:06:25.075Z,4.10
2019-02-24T01:08:56.523Z,4.10
2019-02-24T01:11:27.870Z,4.10
2019-02-24T01:14:10.549Z,4.20
2019-02-24T01:16:41.979Z,4.20
2019-02-24T01:19:14.461Z,4.10
2019-02-24T01:21:46.443Z,4.10
2019-02-24T01:24:17.837Z,4.10
2019-02-24T01:26:49.336Z,4.10
2019-02-24T01:29:20.782Z,4.20
2019-02-24T01:31:52.118Z,4.20
2019-02-24T01:34:23.594Z,4.20
2019-02-24T01:36:54.831Z,4.20
2019-02-24T01:39:27.526Z,4.10
2019-02-24T01:41:59.989Z,4.10
2019-02-24T01:44:31.322Z,4.20
2019-02-24T01:47:02.656Z,4.20
2019-02-24T01:49:33.827Z,4.20
2019-02-24T01:52:05.218Z,4.10
2019-02-24T01:54:37.022Z,4.20
2019-02-24T01:57:09.113Z,4.10
2019-02-24T01:59:40.474Z,4.10
2019-02-24T02:02:11.483Z,4.20
2019-02-24T02:04:43.833Z,4.20
2019-02-24T02:07:15.096Z,4.20
2019-02-24T02:09:46.316Z,4.20
2019-02-24T02:12:17.649Z,4.20
2019-02-24T02:14:48.736Z,4.20
2019-02-24T02:17:20.922Z,4.20
2019-02-24T02:19:52.065Z,4.20
2019-02-24T02:22:23.316Z,4.30
2019-02-24T02:24:54.494Z,4.30
2019-02-24T02:27:25.599Z,4.30
2019-02-24T02:29:57.021Z,4.30
2019-02-24T02:32:28.505Z,4.20
2019-02-24T02:34:59.631Z,4.30
2019-02-24T02:37:31.875Z,4.20
2019-02-24T02:40:03.710Z,4.20
2019-02-24T02:42:36.433Z,4.20
2019-02-24T02:45:08.173Z,4.20
2019-02-24T02:47:39.914Z,4.20
2019-02-24T02:50:11.145Z,4.20
2019-02-24T02:52:42.408Z,4.20
2019-02-24T02:55:13.532Z,4.20
2019-02-24T02:57:44.767Z,4.20
2019-02-24T03:00:32.425Z,4.20
2019-02-24T03:03:03.780Z,4.20
2019-02-24T03:05:34.866Z,4.10
2019-02-24T03:08:13.903Z,4.20
2019-02-24T03:10:45.098Z,4.10
2019-02-24T03:13:17.533Z,4.10
2019-02-24T03:15:48.937Z,4.20
2019-02-24T03:18:20.274Z,4.20
2019-02-24T03:20:51.438Z,4.10
2019-02-24T03:23:22.641Z,4.10
2019-02-24T03:25:53.983Z,4.10
2019-02-24T03:28:25.304Z,4.10
2019-02-24T03:30:57.774Z,4.10
2019-02-24T03:33:28.870Z,4.10
2019-02-24T03:36:00.726Z,4.10
2019-02-24T03:38:31.984Z,4.20
2019-02-24T03:41:04.471Z,4.10
2019-02-24T03:43:35.810Z,4.20
2019-02-24T03:46:08.020Z,4.20
2019-02-24T03:48:39.359Z,4.10
2019-02-24T03:51:10.649Z,4.20
2019-02-24T03:53:42.269Z,4.20
2019-02-24T03:56:13.617Z,4.10
2019-02-24T03:58:45.073Z,4.10
2019-02-24T04:01:16.367Z,4.10
2019-02-24T04:03:47.862Z,4.10
2019-02-24T04:06:19.844Z,4.10
2019-02-24T04:08:52.279Z,4.00
2019-02-24T04:11:23.998Z,4.10
2019-02-24T04:13:55.386Z,4.10
2019-02-24T04:16:26.665Z,4.00
2019-02-24T04:18:59.155Z,4.10
2019-02-24T04:21:30.658Z,4.10
2019-02-24T04:24:02.041Z,4.10
2019-02-24T04:26:33.344Z,4.00
2019-02-24T04:29:24.331Z,4.00
2019-02-24T04:31:48.619Z,4.00
2019-02-24T04:34:19.881Z,4.10
2019-02-24T04:36:52.734Z,4.10
2019-02-24T04:39:24.029Z,4.10
2019-02-24T04:41:55.248Z,4.10
2019-02-24T04:44:26.631Z,4.10
2019-02-24T04:46:58.494Z,4.10
2019-02-24T04:49:29.840Z,4.10
2019-02-24T04:52:01.225Z,4.00
2019-02-24T04:54:32.246Z,4.10
2019-02-24T04:57:03.532Z,4.10
2019-02-24T04:59:35.360Z,4.00
2019-02-24T05:02:07.929Z,4.00
2019-02-24T05:04:39.397Z,4.00
2019-02-24T05:07:11.693Z,4.00
2019-02-24T05:09:43.112Z,4.00
2019-02-24T05:12:14.382Z,3.90
2019-02-24T05:14:45.534Z,4.00
2019-02-24T05:17:16.606Z,4.00
2019-02-24T05:19:47.723Z,4.00
2019-02-24T05:22:19.386Z,4.00
2019-02-24T05:24:50.658Z,4.00
2019-02-24T05:27:22.044Z,4.00
2019-02-24T05:29:53.821Z,4.00
2019-02-24T05:32:25.826Z,4.00
2019-02-24T05:34:58.154Z,4.00
2019-02-24T05:37:29.934Z,4.10
2019-02-24T05:40:01.239Z,4.10
2019-02-24T05:42:33.324Z,4.10
2019-02-24T05:45:06.690Z,4.10
2019-02-24T05:47:38.491Z,4.10
2019-02-24T05:50:09.799Z,4.10
2019-02-24T05:52:42.120Z,4.10
2019-02-24T05:55:13.348Z,4.10
2019-02-24T05:57:44.548Z,4.10
2019-02-24T06:00:15.908Z,4.10
2019-02-24T06:02:47.092Z,4.10
2019-02-24T06:05:18.449Z,4.20
2019-02-24T06:07:49.760Z,4.20
2019-02-24T06:10:20.907Z,4.20
2019-02-24T06:12:53.267Z,4.20
2019-02-24T06:15:24.468Z,4.20
2019-02-24T06:17:55.775Z,4.20
2019-02-24T06:20:27.020Z,4.20
2019-02-24T06:22:58.630Z,4.20
2019-02-24T06:25:29.953Z,4.20
2019-02-24T06:28:01.281Z,4.30
2019-02-24T06:30:32.621Z,4.30
2019-02-24T06:33:04.012Z,4.20
2019-02-24T06:35:36.303Z,4.20
2019-02-24T06:38:07.396Z,4.30
2019-02-24T06:40:38.711Z,4.30
2019-02-24T06:43:11.298Z,4.30
2019-02-24T06:45:42.653Z,4.30
2019-02-24T06:48:14.956Z,4.30
2019-02-24T06:51:12.239Z,4.30
2019-02-24T06:53:44.418Z,4.30
2019-02-24T06:56:15.871Z,4.40
2019-02-24T06:58:47.225Z,4.40
2019-02-24T07:01:19.184Z,4.30
2019-02-24T07:03:50.613Z,4.30
2019-02-24T07:06:22.923Z,4.50
2019-02-24T07:08:55.322Z,4.50
2019-02-24T07:11:26.860Z,4.40
2019-02-24T07:13:58.130Z,4.30
2019-02-24T07:16:29.425Z,4.40
2019-02-24T07:19:00.573Z,4.60
2019-02-24T07:21:32.968Z,4.50
2019-02-24T07:24:04.313Z,4.60
2019-02-24T07:26:35.739Z,4.60
2019-02-24T07:29:06.955Z,4.60
2019-02-24T07:31:38.293Z,4.70
2019-02-24T07:34:09.525Z,4.70
2019-02-24T07:36:40.891Z,4.70
2019-02-24T07:39:11.986Z,4.70
2019-02-24T07:41:43.424Z,4.60
2019-02-24T07:44:14.837Z,4.60
2019-02-24T07:46:46.153Z,4.60
2019-02-24T07:49:18.518Z,4.80
2019-02-24T07:51:49.838Z,4.70
2019-02-24T07:54:21.075Z,4.70
2019-02-24T07:56:52.319Z,4.60
2019-02-24T07:59:23.714Z,4.60
2019-02-24T08:01:55.039Z,4.70
2019-02-24T08:04:26.279Z,4.60
2019-02-24T08:06:57.604Z,4.40
2019-02-24T08:09:28.882Z,4.50
2019-02-24T08:12:01.398Z,4.50
2019-02-24T08:14:44.215Z,4.40
2019-02-24T08:17:15.302Z,4.40
2019-02-24T08:19:46.444Z,4.40
2019-02-24T08:22:17.574Z,4.50
2019-02-24T08:24:48.838Z,4.40
2019-02-24T08:27:20.323Z,4.50
2019-02-24T08:29:51.454Z,4.60
2019-02-24T08:32:22.743Z,4.70
2019-02-24T08:34:53.870Z,4.70
2019-02-24T08:37:25.073Z,4.70
2019-02-24T08:39:56.862Z,4.70
2019-02-24T08:42:28.326Z,4.70
2019-02-24T08:45:02.826Z,4.70
2019-02-24T08:47:35.085Z,4.90
2019-02-24T08:50:07.849Z,4.90
2019-02-24T08:52:38.940Z,5.10
2019-02-24T08:55:11.199Z,5.40
2019-02-24T08:57:42.528Z,5.40
2019-02-24T09:00:13.934Z,5.40
2019-02-24T09:02:45.372Z,5.30
2019-02-24T09:05:16.571Z,5.30
2019-02-24T09:07:47.678Z,5.20
2019-02-24T09:10:19.154Z,5.10
2019-02-24T09:12:50.686Z,5.30
2019-02-24T09:15:22.385Z,5.50
2019-02-24T09:17:54.119Z,5.30
2019-02-24T09:20:25.509Z,5.50
2019-02-24T09:22:56.962Z,5.70
2019-02-24T09:25:28.734Z,5.90
2019-02-24T09:28:00.227Z,5.60
2019-02-24T09:30:31.760Z,5.80
2019-02-24T09:33:03.142Z,6.00
2019-02-24T09:35:34.622Z,6.10
2019-02-24T09:38:06.156Z,6.10
2019-02-24T09:40:37.340Z,6.20
2019-02-24T09:43:08.789Z,6.20
2019-02-24T09:45:40.494Z,6.40
2019-02-24T09:48:11.907Z,6.30
2019-02-24T09:50:54.735Z,6.30
2019-02-24T09:53:37.370Z,6.20
2019-02-24T09:56:08.783Z,6.30
2019-02-24T09:58:40.036Z,6.30
2019-02-24T10:01:11.471Z,6.30
2019-02-24T10:03:42.760Z,6.30
2019-02-24T10:06:14.052Z,6.10
2019-02-24T10:08:45.527Z,6.20
2019-02-24T10:11:17.045Z,6.30
2019-02-24T10:13:48.585Z,6.30
2019-02-24T10:16:20.186Z,6.30
2019-02-24T10:18:52.452Z,6.30
2019-02-24T10:21:24.919Z,6.30
2019-02-24T10:23:57.220Z,6.30
2019-02-24T10:26:28.444Z,6.30
2019-02-24T10:28:59.722Z,6.50
2019-02-24T10:31:30.877Z,6.60
2019-02-24T10:34:04.707Z,6.50
2019-02-24T10:36:37.305Z,6.50
2019-02-24T10:39:13.579Z,6.50
2019-02-24T10:41:45.579Z,6.40
2019-02-24T10:44:16.923Z,6.30
2019-02-24T10:46:48.364Z,6.30
2019-02-24T10:49:19.657Z,6.30
2019-02-24T10:51:51.294Z,6.50
2019-02-24T10:54:23.021Z,6.60
2019-02-24T10:56:54.582Z,6.50
2019-02-24T10:59:26.143Z,6.50
2019-02-24T11:01:57.715Z,6.40
2019-02-24T11:04:29.467Z,6.40
2019-02-24T11:07:01.093Z,6.50
2019-02-24T11:09:32.629Z,6.50
2019-02-24T11:12:05.343Z,6.50
2019-02-24T11:14:36.821Z,6.50
2019-02-24T11:17:08.160Z,6.30
2019-02-24T11:19:39.669Z,6.10
2019-02-24T11:22:11.964Z,6.30
2019-02-24T11:24:43.030Z,6.30
2019-02-24T11:27:14.418Z,6.00
2019-02-24T11:29:46.321Z,6.10
2019-02-24T11:32:17.537Z,6.00
2019-02-24T11:34:59.986Z,5.90
2019-02-24T11:37:32.500Z,6.10
2019-02-24T11:40:03.864Z,5.50
2019-02-24T11:42:35.133Z,5.50
2019-02-24T11:45:06.654Z,5.30
2019-02-24T11:47:39.036Z,5.00
2019-02-24T11:50:10.915Z,5.10
2019-02-24T11:52:42.180Z,4.90
2019-02-24T11:55:13.600Z,4.90
2019-02-24T11:57:44.951Z,4.90
2019-02-24T12:00:16.533Z,4.90
2019-02-24T12:02:47.755Z,5.00
2019-02-24T12:05:20.156Z,5.10
2019-02-24T12:07:51.409Z,5.10
2019-02-24T12:10:22.727Z,5.20
2019-02-24T12:12:53.968Z,5.20
2019-02-24T12:15:25.630Z,5.00
2019-02-24T12:18:07.555Z,4.90
2019-02-24T12:20:38.979Z,5.10
2019-02-24T12:23:10.357Z,5.00
2019-02-24T12:25:41.790Z,5.00
2019-02-24T12:28:12.964Z,5.10
2019-02-24T12:30:44.134Z,5.10
2019-02-24T12:33:15.458Z,5.30
2019-02-24T12:35:48.842Z,5.10
2019-02-24T12:38:20.072Z,5.20
2019-02-24T12:40:52.576Z,5.30
2019-02-24T12:43:23.918Z,5.50
2019-02-24T12:45:56.191Z,5.40
2019-02-24T12:48:27.578Z,5.40
2019-02-24T12:50:59.042Z,5.40
2019-02-24T12:53:30.214Z,5.40
2019-02-24T12:56:01.747Z,5.40
2019-02-24T12:58:33.010Z,5.40
2019-02-24T13:01:04.452Z,5.80
2019-02-24T13:03:35.837Z,5.90
2019-02-24T13:06:07.184Z,6.00
2019-02-24T13:08:38.346Z,6.00
2019-02-24T13:11:09.761Z,6.10
2019-02-24T13:13:40.837Z,6.10
2019-02-24T13:16:12.264Z,6.00
2019-02-24T13:18:43.566Z,5.70
2019-02-24T13:21:15.821Z,5.80
2019-02-24T13:23:58.641Z,5.80
2019-02-24T13:26:30.121Z,5.80
2019-02-24T13:29:02.523Z,5.80
2019-02-24T13:31:33.839Z,5.60
2019-02-24T13:34:05.300Z,5.50
2019-02-24T13:36:37.669Z,5.20
2019-02-24T13:39:09.053Z,5.00
2019-02-24T13:41:41.520Z,5.10
2019-02-24T13:44:12.778Z,5.10
2019-02-24T13:46:44.120Z,5.20
2019-02-24T13:49:15.472Z,5.20
2019-02-24T13:51:46.736Z,5.10
2019-02-24T13:54:18.214Z,4.90
2019-02-24T13:56:49.282Z,4.80
2019-02-24T13:59:20.575Z,4.80
2019-02-24T14:01:51.871Z,5.00
2019-02-24T14:04:23.084Z,4.90
2019-02-24T14:06:54.240Z,5.00
2019-02-24T14:09:25.589Z,5.00
2019-02-24T14:12:07.998Z,4.90
2019-02-24T14:14:39.413Z,5.00
2019-02-24T14:17:10.638Z,5.00
2019-02-24T14:19:42.728Z,4.90
2019-02-24T14:22:14.036Z,4.80
2019-02-24T14:24:45.354Z,4.80
2019-02-24T14:27:16.366Z,4.90
2019-02-24T14:29:47.780Z,5.10
2019-02-24T14:32:18.938Z,5.20
2019-02-24T14:34:50.185Z,4.90
2019-02-24T14:37:21.414Z,5.20
2019-02-24T14:39:52.830Z,5.00
2019-02-24T14:42:25.185Z,5.00
2019-02-24T14:44:57.033Z,4.90
2019-02-24T14:47:28.610Z,4.90
2019-02-24T14:50:01.146Z,5.20
2019-02-24T14:52:33.101Z,5.20
2019-02-24T14:55:05.580Z,5.20
2019-02-24T14:57:36.955Z,4.90
2019-02-24T15:00:10.159Z,4.80
2019-02-24T15:02:42.810Z,4.70
2019-02-24T15:05:16.347Z,4.70
2019-02-24T15:07:47.504Z,4.80
2019-02-24T15:10:18.937Z,4.70
2019-02-24T15:12:52.514Z,4.70
2019-02-24T15:15:32.504Z,4.90
2019-02-24T15:17:57.200Z,5.10
2019-02-24T15:20:28.571Z,4.90
2019-02-24T15:22:59.845Z,4.90
2019-02-24T15:25:31.261Z,5.00
2019-02-24T15:28:02.675Z,4.90
2019-02-24T15:30:34.118Z,4.70
2019-02-24T15:33:05.527Z,4.70
2019-02-24T15:35:37.278Z,4.90
2019-02-24T15:38:08.672Z,4.70
2019-02-24T15:40:40.201Z,4.70
2019-02-24T15:43:11.658Z,4.60
2019-02-24T15:45:43.081Z,4.60
2019-02-24T15:48:15.224Z,4.60
2019-02-24T15:50:47.386Z,4.70
2019-02-24T15:53:18.725Z,4.90
2019-02-24T15:55:50.029Z,4.90
2019-02-24T15:58:21.287Z,4.80
2019-02-24T16:00:53.003Z,4.50
2019-02-24T16:03:24.406Z,4.40
2019-02-24T16:05:56.007Z,4.40
2019-02-24T16:08:28.715Z,4.50
2019-02-24T16:11:00.111Z,4.50
2019-02-24T16:13:32.688Z,4.40
2019-02-24T16:16:04.264Z,4.50
2019-02-24T16:18:35.737Z,4.70
2019-02-24T16:21:08.543Z,4.70
2019-02-24T16:23:41.563Z,4.70
2019-02-24T16:26:13.446Z,4.70
2019-02-24T16:28:51.949Z,4.60
2019-02-24T16:31:23.684Z,4.40
2019-02-24T16:33:55.554Z,4.40
2019-02-24T16:36:27.854Z,4.40
2019-02-24T16:39:00.019Z,4.40
2019-02-24T16:41:32.251Z,4.50
2019-02-24T16:44:04.641Z,4.60
2019-02-24T16:46:36.969Z,4.60
2019-02-24T16:49:09.370Z,4.70
2019-02-24T16:51:41.529Z,4.70
2019-02-24T16:54:13.511Z,4.70
2019-02-24T16:56:45.086Z,4.80
2019-02-24T16:59:16.883Z,4.80
2019-02-24T17:01:48.925Z,4.80
2019-02-24T17:04:20.787Z,4.90
2019-02-24T17:06:53.863Z,4.90
2019-02-24T17:09:27.286Z,4.90
2019-02-24T17:12:00.217Z,5.00
2019-02-24T17:14:32.609Z,4.90
2019-02-24T17:17:04.924Z,4.90
2019-02-24T17:19:37.274Z,4.90
2019-02-24T17:22:09.872Z,4.90
2019-02-24T17:24:42.276Z,4.90
2019-02-24T17:27:15.549Z,4.90
2019-02-24T17:29:49.296Z,4.90
2019-02-24T17:32:22.562Z,5.00
2019-02-24T17:34:55.807Z,5.00
2019-02-24T17:37:29.199Z,5.00
2019-02-24T17:40:02.682Z,5.00
2019-02-24T17:42:36.105Z,4.90
2019-02-24T17:45:10.576Z,4.90
2019-02-24T17:47:43.931Z,4.90
2019-02-24T17:50:17.515Z,4.90
2019-02-24T17:52:50.752Z,4.90
2019-02-24T17:55:24.049Z,4.90
2019-02-24T17:57:57.074Z,4.90
2019-02-24T18:00:55.667Z,4.90
2019-02-24T18:03:38.703Z,4.90
2019-02-24T18:06:03.217Z,4.90
2019-02-24T18:08:35.285Z,4.90
2019-02-24T18:11:07.386Z,4.90
2019-02-24T18:13:39.192Z,4.90
2019-02-24T18:16:10.824Z,4.80
2019-02-24T18:18:42.534Z,4.90
2019-02-24T18:21:13.840Z,4.90
2019-02-24T18:23:45.366Z,4.80
2019-02-24T18:26:16.750Z,4.90
2019-02-24T18:28:48.181Z,4.80
2019-02-24T18:31:19.784Z,4.80
2019-02-24T18:33:51.490Z,4.80
2019-02-24T18:36:22.864Z,4.80
2019-02-24T18:38:54.646Z,4.80
2019-02-24T18:41:26.095Z,4.80
2019-02-24T18:43:57.939Z,4.90
2019-02-24T18:46:29.655Z,4.80
2019-02-24T18:49:01.457Z,4.80
2019-02-24T18:51:33.150Z,4.80
2019-02-24T18:54:04.972Z,4.90
2019-02-24T18:56:36.787Z,4.80
2019-02-24T18:59:08.979Z,4.90
2019-02-24T19:01:40.736Z,4.90
2019-02-24T19:04:13.881Z,4.80
2019-02-24T19:06:45.837Z,4.80
2019-02-24T19:09:17.966Z,4.80
2019-02-24T19:11:49.944Z,4.80
2019-02-24T19:14:23.323Z,4.80
2019-02-24T19:16:57.173Z,4.80
2019-02-24T19:19:40.530Z,4.80
2019-02-24T19:22:12.871Z,4.90
2019-02-24T19:24:45.101Z,4.80
2019-02-24T19:27:17.956Z,4.80
2019-02-24T19:29:50.321Z,4.80
2019-02-24T19:32:22.111Z,4.80
2019-02-24T19:34:53.716Z,4.80
2019-02-24T19:37:25.369Z,4.80
2019-02-24T19:39:58.246Z,4.80
2019-02-24T19:42:30.101Z,4.90
2019-02-24T19:45:01.920Z,4.90
2019-02-24T19:47:34.225Z,4.90
2019-02-24T19:50:06.905Z,4.90
2019-02-24T19:52:40.206Z,4.90
2019-02-24T19:55:13.304Z,4.90
2019-02-24T19:57:47.139Z,4.90
2019-02-24T20:00:21.646Z,4.90
2019-02-24T20:02:53.864Z,4.90
2019-02-24T20:05:25.937Z,4.80
2019-02-24T20:07:58.423Z,4.90
2019-02-24T20:10:30.970Z,4.90
2019-02-24T20:13:03.288Z,4.90
2019-02-24T20:15:35.885Z,4.90
2019-02-24T20:18:08.115Z,4.90
2019-02-24T20:20:40.035Z,4.90
2019-02-24T20:23:11.909Z,4.90
2019-02-24T20:25:43.698Z,4.90
2019-02-24T20:28:15.909Z,4.80
2019-02-24T20:30:48.851Z,4.90
2019-02-24T20:33:20.535Z,4.90
2019-02-24T20:35:52.412Z,4.90
2019-02-24T20:38:24.247Z,4.90
2019-02-24T20:40:55.880Z,4.90
2019-02-24T20:43:27.486Z,4.90
2019-02-24T20:45:59.186Z,4.80
2019-02-24T20:48:32.128Z,4.80
2019-02-24T20:51:03.942Z,4.90
2019-02-24T20:53:35.983Z,4.90
2019-02-24T20:56:07.907Z,4.90
2019-02-24T20:58:39.501Z,4.90
2019-02-24T21:01:14.042Z,4.90
2019-02-24T21:03:45.447Z,4.80
2019-02-24T21:06:17.014Z,4.80
2019-02-24T21:08:48.199Z,4.80
2019-02-24T21:11:19.500Z,4.80
2019-02-24T21:13:50.705Z,4.80
2019-02-24T21:16:21.957Z,4.80
2019-02-24T21:18:53.254Z,4.80
2019-02-24T21:21:24.721Z,4.80
2019-02-24T21:23:57.531Z,4.80
2019-02-24T21:26:29.480Z,4.80
2019-02-24T21:29:00.995Z,4.90
2019-02-24T21:31:32.486Z,4.90
2019-02-24T21:34:03.984Z,4.80
2019-02-24T21:36:36.128Z,4.90
2019-02-24T21:39:08.999Z,4.90
2019-02-24T21:41:42.073Z,4.90
2019-02-24T21:44:13.481Z,4.90
2019-02-24T21:46:44.766Z,4.90
2019-02-24T21:49:15.916Z,4.90
2019-02-24T21:51:47.314Z,4.90
2019-02-24T21:54:18.554Z,4.90
2019-02-24T21:56:49.855Z,4.90
2019-02-24T21:59:21.213Z,4.90
2019-02-24T22:01:52.545Z,4.90
2019-02-24T22:04:23.882Z,4.90
2019-02-24T22:06:55.211Z,5.00
2019-02-24T22:09:26.505Z,5.00
2019-02-24T22:11:57.787Z,5.00
2019-02-24T22:14:29.052Z,5.00
2019-02-24T22:17:00.425Z,5.00
2019-02-24T22:19:31.677Z,4.90
2019-02-24T22:22:03.041Z,4.90
2019-02-24T22:24:35.122Z,5.00
2019-02-24T22:27:06.480Z,4.90
2019-02-24T22:29:37.734Z,4.90
2019-02-24T22:32:08.967Z,4.90
2019-02-24T22:34:40.297Z,5.00
2019-02-24T22:37:12.203Z,4.90
2019-02-24T22:39:43.483Z,5.00
2019-02-24T22:42:14.811Z,5.00
2019-02-24T22:44:47.037Z,5.00
2019-02-24T22:47:18.380Z,5.00
2019-02-24T22:49:50.065Z,5.00
2019-02-24T22:52:22.204Z,5.00
2019-02-24T22:54:53.883Z,5.00
2019-02-24T22:57:25.090Z,5.00
2019-02-24T22:59:56.419Z,5.00
2019-02-24T23:02:28.148Z,5.00
2019-02-24T23:04:59.581Z,4.90
2019-02-24T23:07:49.924Z,5.00
2019-02-24T23:10:21.537Z,5.00
2019-02-24T23:12:52.831Z,5.00
2019-02-24T23:15:24.327Z,5.00
2019-02-24T23:17:55.813Z,5.00
2019-02-24T23:20:27.181Z,4.90
2019-02-24T23:22:58.522Z,4.90
2019-02-24T23:25:30.867Z,5.00
2019-02-24T23:28:02.384Z,5.00
2019-02-24T23:30:33.682Z,5.00
2019-02-24T23:33:04.996Z,5.10
2019-02-24T23:35:36.504Z,5.10
2019-02-24T23:38:07.959Z,5.10
2019-02-24T23:40:39.400Z,5.10
2019-02-24T23:43:22.426Z,5.10
2019-02-24T23:45:53.809Z,5.10
2019-02-24T23:48:24.953Z,5.10
2019-02-24T23:50:57.043Z,5.00
2019-02-24T23:53:28.398Z,5.00
2019-02-24T23:55:59.632Z,5.10
2019-02-24T23:58:30.871Z,5.00
